createdAt,value
2022-09-16T00:00:31.956Z,39.46
2022-09-16T00:05:34.042Z,40.27
2022-09-16T00:10:36.323Z,41.13
2022-09-16T00:15:43.204Z,42.56
2022-09-16T00:20:51.082Z,42.96
2022-09-16T00:25:55.259Z,43.61
2022-09-16T00:31:01.235Z,43.98
2022-09-16T00:36:15.457Z,43.84
2022-09-16T00:41:21.150Z,44.37
2022-09-16T00:46:39.147Z,44.26
2022-09-16T00:51:42.745Z,43.87
2022-09-16T00:56:48.109Z,44.54
2022-09-16T01:01:51.844Z,45.57
2022-09-16T01:06:54.680Z,45.13
2022-09-16T01:11:56.839Z,45.30
2022-09-16T01:17:16.773Z,44.17
2022-09-16T01:22:36.054Z,43.03
2022-09-16T01:27:52.429Z,42.28
2022-09-16T01:33:05.020Z,42.08
2022-09-16T01:38:18.285Z,43.19
2022-09-16T01:43:50.890Z,42.30
2022-09-16T01:49:07.402Z,42.33
2022-09-16T01:54:18.925Z,41.65
2022-09-16T01:59:23.345Z,41.47
2022-09-16T02:04:32.005Z,41.88
2022-09-16T02:09:39.272Z,42.44
2022-09-16T02:14:46.193Z,42.25
2022-09-16T02:20:05.111Z,41.56
2022-09-16T02:25:09.116Z,40.26
2022-09-16T02:30:17.057Z,40.13
2022-09-16T02:35:20.944Z,40.04
2022-09-16T02:40:27.324Z,40.18
2022-09-16T02:45:59.460Z,40.01
2022-09-16T02:51:12.392Z,40.13
2022-09-16T02:56:24.968Z,40.98
2022-09-16T03:01:30.519Z,41.20
2022-09-16T03:06:36.160Z,42.54
2022-09-16T03:11:50.148Z,42.98
2022-09-16T03:17:00.974Z,43.47
2022-09-16T03:22:11.856Z,43.01
2022-09-16T03:27:20.804Z,43.36
2022-09-16T03:32:27.481Z,42.61
2022-09-16T03:37:34.367Z,42.76
2022-09-16T03:42:39.904Z,42.65
2022-09-16T03:47:43.224Z,44.19
2022-09-16T03:52:45.353Z,45.33
2022-09-16T03:57:47.339Z,46.16
2022-09-16T04:02:49.476Z,47.21
2022-09-16T04:07:51.681Z,47.50
2022-09-16T04:12:58.488Z,47.31
2022-09-16T04:18:00.641Z,47.36
2022-09-16T04:23:02.833Z,47.60
2022-09-16T04:28:04.753Z,47.40
2022-09-16T04:33:07.016Z,48.03
2022-09-16T04:38:08.886Z,47.64
2022-09-16T04:43:10.787Z,47.02
2022-09-16T04:48:12.868Z,46.82
2022-09-16T04:53:14.837Z,46.20
2022-09-16T04:58:16.765Z,45.96
2022-09-16T05:03:18.895Z,45.69
2022-09-16T05:08:20.768Z,44.93
2022-09-16T05:13:23.589Z,44.56
2022-09-16T05:18:25.525Z,42.81
2022-09-16T05:23:28.089Z,41.97
2022-09-16T05:28:30.013Z,41.62
2022-09-16T05:33:32.164Z,41.09
2022-09-16T05:38:34.318Z,40.86
2022-09-16T05:43:36.892Z,41.17
2022-09-16T05:48:38.822Z,39.68
2022-09-16T05:53:40.720Z,38.19
2022-09-16T05:58:43.068Z,36.96
2022-09-16T06:03:46.671Z,31.43
2022-09-16T06:08:48.993Z,27.83
2022-09-16T06:13:56.109Z,25.06
2022-09-16T06:18:58.117Z,22.23
2022-09-16T06:24:00.289Z,18.19
2022-09-16T06:29:02.444Z,15.64
2022-09-16T06:34:06.258Z,13.87
2022-09-16T06:39:11.434Z,13.10
2022-09-16T06:44:13.421Z,15.03
2022-09-16T06:49:15.291Z,10.32
2022-09-16T06:54:17.521Z,8.82
2022-09-16T06:59:19.369Z,6.05
2022-09-16T07:04:21.261Z,7.64
2022-09-16T07:09:24.036Z,5.55
2022-09-16T07:14:27.711Z,4.12
2022-09-16T07:19:29.644Z,1.00
2022-09-16T07:24:31.590Z,-0.15
2022-09-16T07:29:33.556Z,-0.27
2022-09-16T07:34:35.881Z,-2.26
2022-09-16T07:39:37.842Z,-1.66
2022-09-16T07:44:39.781Z,-4.09
2022-09-16T07:49:42.357Z,-4.85
2022-09-16T07:54:44.256Z,118.66
2022-09-16T07:59:46.090Z,114.07
2022-09-16T08:04:48.128Z,114.86
2022-09-16T08:09:51.342Z,113.02
2022-09-16T08:14:55.009Z,113.87
2022-09-16T08:19:56.923Z,110.59
2022-09-16T08:24:58.822Z,107.32
2022-09-16T08:30:00.680Z,107.39
2022-09-16T08:35:03.282Z,104.66
2022-09-16T08:40:06.244Z,104.61
2022-09-16T08:45:28.840Z,104.90
2022-09-16T08:50:35.216Z,104.79
2022-09-16T08:55:46.809Z,104.91
2022-09-16T09:00:57.122Z,101.81
2022-09-16T09:06:00.635Z,99.98
2022-09-16T09:11:15.109Z,99.25
2022-09-16T09:16:22.966Z,97.50
2022-09-16T09:21:49.929Z,95.67
2022-09-16T09:27:16.991Z,95.71
2022-09-16T09:32:51.341Z,94.65
2022-09-16T09:38:28.530Z,94.25
2022-09-16T09:43:46.799Z,95.98
2022-09-16T09:48:56.193Z,93.86
2022-09-16T09:54:27.035Z,93.43
2022-09-16T09:59:32.822Z,92.36
2022-09-16T10:04:39.073Z,92.21
2022-09-16T10:10:19.077Z,90.50
2022-09-16T10:15:29.061Z,92.75
2022-09-16T10:20:34.900Z,91.05
2022-09-16T10:25:37.176Z,93.49
2022-09-16T10:30:52.548Z,89.56
2022-09-16T10:36:01.101Z,90.18
2022-09-16T10:41:15.795Z,90.88
2022-09-16T10:46:19.207Z,90.42
2022-09-16T10:51:22.808Z,89.17
2022-09-16T10:56:31.195Z,89.25
2022-09-16T11:02:04.286Z,91.52
2022-09-16T11:07:22.001Z,90.95
2022-09-16T11:12:45.673Z,90.37
2022-09-16T11:17:56.632Z,93.82
2022-09-16T11:23:13.720Z,107.44
2022-09-16T11:28:36.638Z,109.53
2022-09-16T11:34:01.383Z,111.33
2022-09-16T11:39:13.706Z,117.37
2022-09-16T11:44:41.182Z,116.31
2022-09-16T11:50:07.272Z,110.85
2022-09-16T11:55:26.248Z,104.21
2022-09-16T12:00:31.438Z,103.99
2022-09-16T12:06:09.573Z,105.31
2022-09-16T12:11:19.559Z,101.41
2022-09-16T12:16:33.809Z,100.19
2022-09-16T12:21:58.033Z,100.93
2022-09-16T12:27:19.572Z,99.37
2022-09-16T12:32:56.778Z,99.41
2022-09-16T12:37:59.513Z,99.64
2022-09-16T12:43:10.880Z,99.70
2022-09-16T12:48:41.819Z,98.43
2022-09-16T12:53:52.848Z,95.96
2022-09-16T12:59:38.281Z,96.03
2022-09-16T13:04:44.147Z,95.06
2022-09-16T13:09:47.440Z,95.54
2022-09-16T13:15:05.053Z,94.20
2022-09-16T13:20:18.096Z,94.80
2022-09-16T13:25:38.907Z,93.67
2022-09-16T13:30:40.848Z,90.56
2022-09-16T13:35:44.868Z,89.68
2022-09-16T13:40:58.615Z,88.85
2022-09-16T13:46:09.219Z,88.64
2022-09-16T13:51:18.252Z,87.86
2022-09-16T13:56:26.132Z,90.10
2022-09-16T14:01:58.404Z,89.18
2022-09-16T14:07:10.914Z,88.15
2022-09-16T14:12:31.641Z,87.70
2022-09-16T14:17:45.655Z,87.69
2022-09-16T14:23:04.948Z,88.35
2022-09-16T14:28:15.514Z,89.26
2022-09-16T14:33:22.298Z,89.38
2022-09-16T14:38:45.628Z,88.06
2022-09-16T14:43:48.627Z,89.34
2022-09-16T14:48:50.768Z,87.58
2022-09-16T14:54:12.210Z,89.20
2022-09-16T14:59:15.439Z,89.58
2022-09-16T15:04:25.981Z,89.95
2022-09-16T15:09:45.363Z,89.03
2022-09-16T15:14:48.075Z,89.41
2022-09-16T15:19:54.348Z,90.22
2022-09-16T15:24:59.460Z,91.64
2022-09-16T15:30:05.377Z,91.27
2022-09-16T15:35:19.916Z,92.69
2022-09-16T15:40:27.983Z,91.88
2022-09-16T15:45:30.187Z,92.62
2022-09-16T15:50:44.352Z,92.68
2022-09-16T15:55:57.944Z,93.19
2022-09-16T16:01:09.627Z,93.97
2022-09-16T16:06:12.542Z,95.49
2022-09-16T16:11:25.165Z,95.61
2022-09-16T16:16:28.662Z,95.43
2022-09-16T16:21:30.900Z,94.27
2022-09-16T16:26:32.855Z,94.72
2022-09-16T16:31:37.166Z,93.83
2022-09-16T16:36:39.334Z,94.13
2022-09-16T16:41:41.293Z,94.70
2022-09-16T16:46:43.591Z,95.47
2022-09-16T16:51:48.385Z,96.84
2022-09-16T16:56:50.875Z,98.00
2022-09-16T17:01:55.337Z,99.44
2022-09-16T17:07:21.397Z,99.30
2022-09-16T17:12:19.716Z,101.02
2022-09-16T17:17:22.163Z,102.28
2022-09-16T17:22:24.091Z,103.51
2022-09-16T17:27:28.808Z,104.94
2022-09-16T17:32:32.802Z,107.24
2022-09-16T17:37:44.935Z,110.41
2022-09-16T17:42:51.451Z,113.21
2022-09-16T17:47:53.528Z,115.12
2022-09-16T17:52:55.898Z,117.05
2022-09-16T17:57:58.273Z,117.77
2022-09-16T18:03:01.358Z,-2.67
2022-09-16T18:08:04.572Z,-1.17
2022-09-16T18:13:06.533Z,2.85
2022-09-16T18:18:11.070Z,5.11
2022-09-16T18:23:14.220Z,6.86
2022-09-16T18:28:17.122Z,6.53
2022-09-16T18:33:20.485Z,8.76
2022-09-16T18:38:25.497Z,9.14
2022-09-16T18:43:27.721Z,9.01
2022-09-16T18:48:29.667Z,10.08
2022-09-16T18:53:32.761Z,10.20
2022-09-16T18:58:35.159Z,11.36
2022-09-16T19:03:37.567Z,11.93
2022-09-16T19:08:40.759Z,12.59
2022-09-16T19:13:45.308Z,13.89
2022-09-16T19:18:55.337Z,15.39
2022-09-16T19:24:00.135Z,17.57
2022-09-16T19:29:06.831Z,20.89
2022-09-16T19:34:10.453Z,23.16
2022-09-16T19:39:12.631Z,25.12
2022-09-16T19:44:17.148Z,25.07
2022-09-16T19:49:21.360Z,26.18
2022-09-16T19:54:24.384Z,25.62
2022-09-16T19:59:26.916Z,27.13
2022-09-16T20:04:29.788Z,26.67
2022-09-16T20:09:34.816Z,26.45
2022-09-16T20:14:37.458Z,27.20
2022-09-16T20:19:40.737Z,26.99
2022-09-16T20:24:42.741Z,27.29
2022-09-16T20:29:45.028Z,26.33
2022-09-16T20:34:47.197Z,26.39
2022-09-16T20:39:49.420Z,26.02
2022-09-16T20:44:51.645Z,26.39
2022-09-16T20:49:54.773Z,26.93
2022-09-16T20:54:57.201Z,27.71
2022-09-16T20:59:59.729Z,26.46
2022-09-16T21:05:04.772Z,26.63
2022-09-16T21:10:07.649Z,26.53
2022-09-16T21:15:09.969Z,26.94
2022-09-16T21:20:11.969Z,26.62
2022-09-16T21:25:13.996Z,28.17
2022-09-16T21:30:16.610Z,28.75
2022-09-16T21:35:19.065Z,29.20
2022-09-16T21:40:23.551Z,30.52
2022-09-16T21:45:26.272Z,31.45
2022-09-16T21:50:28.284Z,31.15
2022-09-16T21:55:30.704Z,31.74
2022-09-16T22:00:33.160Z,31.76
2022-09-16T22:05:35.174Z,32.04
2022-09-16T22:10:39.081Z,31.54
2022-09-16T22:15:49.857Z,31.25
2022-09-16T22:20:52.589Z,30.80
2022-09-16T22:25:54.717Z,30.58
2022-09-16T22:31:06.334Z,30.31
2022-09-16T22:36:13.893Z,30.52
2022-09-16T22:41:17.625Z,30.36
2022-09-16T22:46:21.926Z,30.56
2022-09-16T22:51:24.705Z,30.90
2022-09-16T22:56:33.544Z,31.51
2022-09-16T23:01:38.737Z,30.93
2022-09-16T23:06:41.372Z,31.01
2022-09-16T23:11:44.162Z,31.76
2022-09-16T23:16:46.114Z,31.37
2022-09-16T23:21:49.964Z,31.76
2022-09-16T23:26:51.926Z,32.14
2022-09-16T23:31:53.905Z,32.31
2022-09-16T23:36:55.828Z,33.25
2022-09-16T23:41:58.929Z,33.59
2022-09-16T23:47:00.931Z,33.52
2022-09-16T23:52:03.391Z,34.94
2022-09-16T23:57:05.593Z,35.53
